Time;durP1;ratioP1;P1;durP2;ratioP2;P2;SDS_P1;SDS_P2;PMS_P1;PMS_P2;Temp;Humidity;BMP_temperature;BMP_pressure;BME280_temperature;BME280_humidity;BME280_pressure;Samples;Min_cycle;Max_cycle;Signal;HPM_P1;HPM_P2
2023/01/11 00:01:02;;;;;;;15.57;5.60;;;;;;;;;;4921633;29;20271;-89
2023/01/11 00:03:31;;;;;;;5.63;3.50;;;;;;;;;;4938361;29;20249;-89
2023/01/11 00:06:00;;;;;;;8.33;4.93;;;;;;;;;;4938208;29;20222;-89
2023/01/11 00:08:30;;;;;;;8.57;5.10;;;;;;;;;;4938189;29;20266;-89
2023/01/11 00:11:01;;;;;;;5.73;4.20;;;;;;;;;;4921537;29;20258;-89
2023/01/11 00:13:29;;;;;;;7.80;5.27;;;;;;;;;;4921384;29;20198;-89
2023/01/11 00:15:57;;;;;;;10.23;5.47;;;;;;;;;;4921245;29;20298;-89
2023/01/11 00:18:26;;;;;;;4.53;3.57;;;;;;;;;;4938084;29;20221;-89
2023/01/11 00:20:54;;;;;;;11.13;4.13;;;;;;;;;;4921519;29;20289;-89
2023/01/11 00:23:23;;;;;;;8.03;6.03;;;;;;;;;;4920094;29;20212;-89
2023/01/11 00:25:52;;;;;;;14.40;3.67;;;;;;;;;;4937943;29;20191;-89
2023/01/11 00:28:21;;;;;;;9.13;6.13;;;;;;;;;;4921293;29;20254;-89
2023/01/11 00:30:49;;;;;;;7.97;5.13;;;;;;;;;;4937771;29;20201;-89
2023/01/11 00:33:17;;;;;;;7.53;4.30;;;;;;;;;;4921392;29;20214;-89
2023/01/11 00:35:46;;;;;;;4.13;3.03;;;;;;;;;;4921341;29;20233;-89
2023/01/11 00:38:42;;;;;;;6.37;4.87;;;;;;;;;;4920875;29;20234;-89
2023/01/11 00:47:55;;;;;;;12.67;4.80;;;;;;;;;;4937446;29;20300;-89
2023/01/11 00:49:36;;;;;;;8.63;4.00;;;;;;;;;;4916789;29;20237;-89
2023/01/11 00:52:07;;;;;;;9.57;5.17;;;;;;;;;;4937466;29;20206;-89
2023/01/11 00:54:36;;;;;;;7.77;4.10;;;;;;;;;;4920530;29;20232;-89
2023/01/11 00:57:06;;;;;;;3.90;2.80;;;;;;;;;;4920600;29;20240;-89
2023/01/11 00:59:34;;;;;;;3.53;2.73;;;;;;;;;;4920832;29;20207;-89
2023/01/11 01:02:03;;;;;;;4.93;2.70;;;;;;;;;;4920226;29;20213;-89
2023/01/11 01:04:31;;;;;;;4.97;2.67;;;;;;;;;;4920525;29;20303;-89
2023/01/11 01:07:00;;;;;;;7.20;4.33;;;;;;;;;;4920292;29;20248;-89
2023/01/11 01:09:28;;;;;;;4.83;2.87;;;;;;;;;;4920844;29;20226;-89
2023/01/11 01:11:58;;;;;;;11.27;4.77;;;;;;;;;;4920454;29;20236;-89
2023/01/11 01:14:28;;;;;;;7.47;3.30;;;;;;;;;;4937161;29;20222;-89
2023/01/11 01:16:57;;;;;;;6.77;4.20;;;;;;;;;;4920630;29;20229;-89
2023/01/11 01:19:26;;;;;;;9.67;3.97;;;;;;;;;;4920553;29;20205;-89
2023/01/11 01:21:55;;;;;;;8.67;4.27;;;;;;;;;;4937135;29;20208;-89
2023/01/11 01:24:24;;;;;;;11.03;4.97;;;;;;;;;;4920434;29;20246;-89
2023/01/11 01:26:52;;;;;;;7.37;4.33;;;;;;;;;;4920055;29;20210;-89
2023/01/11 01:29:21;;;;;;;6.87;3.77;;;;;;;;;;4919980;29;20216;-89
2023/01/11 01:31:51;;;;;;;10.57;4.07;;;;;;;;;;4919963;29;20216;-89
2023/01/11 01:34:19;;;;;;;1.97;1.87;;;;;;;;;;4920042;29;20278;-89
2023/01/11 01:36:47;;;;;;;7.83;3.93;;;;;;;;;;4936996;29;20205;-89
2023/01/11 01:39:16;;;;;;;8.17;3.00;;;;;;;;;;4920290;29;20297;-89
2023/01/11 01:41:44;;;;;;;5.77;2.67;;;;;;;;;;4919760;29;20209;-89
2023/01/11 01:44:31;;;;;;;5.83;3.03;;;;;;;;;;4920324;29;20202;-89
2023/01/11 01:47:03;;;;;;;12.43;5.37;;;;;;;;;;4919715;29;20266;-89
2023/01/11 01:49:31;;;;;;;10.77;5.27;;;;;;;;;;4919864;29;20263;-89
2023/01/11 01:52:00;;;;;;;7.37;2.43;;;;;;;;;;4920094;29;20206;-89
2023/01/11 01:54:30;;;;;;;6.50;2.93;;;;;;;;;;4919772;29;20240;-89
2023/01/11 01:57:01;;;;;;;6.53;3.37;;;;;;;;;;4919786;29;20241;-89
2023/01/11 01:59:31;;;;;;;11.20;4.00;;;;;;;;;;4936850;29;20195;-89
2023/01/11 02:02:01;;;;;;;10.07;3.83;;;;;;;;;;4936696;29;20213;-88
2023/01/11 02:04:31;;;;;;;12.77;4.63;;;;;;;;;;4919969;29;20213;-89
2023/01/11 02:07:00;;;;;;;13.53;4.03;;;;;;;;;;4919399;29;20272;-89
2023/01/11 02:09:33;;;;;;;14.17;3.70;;;;;;;;;;4919405;29;20471;-89
2023/01/11 02:12:01;;;;;;;4.20;2.70;;;;;;;;;;4919431;29;20211;-89
2023/01/11 02:14:31;;;;;;;11.07;3.67;;;;;;;;;;4936408;29;20225;-89
2023/01/11 02:17:01;;;;;;;12.27;4.23;;;;;;;;;;4919499;29;20219;-89
2023/01/11 02:19:41;;;;;;;9.07;3.10;;;;;;;;;;4936714;29;20332;-89
2023/01/11 02:22:31;;;;;;;8.67;3.47;;;;;;;;;;4936245;29;20217;-89
2023/01/11 02:25:07;;;;;;;9.67;1.90;;;;;;;;;;4919604;29;20209;-89
2023/01/11 02:27:47;;;;;;;7.87;3.53;;;;;;;;;;4936205;29;20201;-89
2023/01/11 02:30:21;;;;;;;16.80;2.77;;;;;;;;;;4919599;29;20309;-89
2023/01/11 02:32:54;;;;;;;9.00;3.60;;;;;;;;;;4936232;29;20262;-88
2023/01/11 02:35:28;;;;;;;16.80;5.67;;;;;;;;;;4919575;29;20206;-89
2023/01/11 02:38:00;;;;;;;29.03;8.50;;;;;;;;;;4919395;29;20210;-89
2023/01/11 02:40:37;;;;;;;24.00;7.63;;;;;;;;;;4936292;29;20197;-89
2023/01/11 02:46:11;;;;;;;19.33;5.47;;;;;;;;;;4921206;29;20205;-89
2023/01/11 02:48:42;;;;;;;8.00;2.33;;;;;;;;;;4922881;29;20244;-90
2023/01/11 02:51:13;;;;;;;10.07;3.43;;;;;;;;;;4939710;29;20235;-89
2023/01/11 02:53:46;;;;;;;10.03;3.27;;;;;;;;;;4922903;29;20206;-89
2023/01/11 02:56:17;;;;;;;19.63;4.83;;;;;;;;;;4939587;29;20207;-89
2023/01/11 02:58:48;;;;;;;8.13;3.70;;;;;;;;;;4922854;29;20198;-89
2023/01/11 03:01:18;;;;;;;14.83;4.87;;;;;;;;;;4939800;29;20632;-89
2023/01/11 03:03:46;;;;;;;11.23;3.37;;;;;;;;;;4922717;29;20212;-89
2023/01/11 03:06:17;;;;;;;10.33;4.10;;;;;;;;;;4922505;29;20258;-89
2023/01/11 03:09:00;;;;;;;9.90;4.40;;;;;;;;;;4922393;29;20239;-89
2023/01/11 03:14:28;;;;;;;10.73;3.83;;;;;;;;;;4893868;29;20219;-90
2023/01/11 03:17:00;;;;;;;8.87;3.33;;;;;;;;;;4922515;29;20307;-89
2023/01/11 03:19:35;;;;;;;22.30;5.13;;;;;;;;;;4922144;29;20245;-89
2023/01/11 03:22:05;;;;;;;18.70;5.60;;;;;;;;;;4939075;29;20281;-89
2023/01/11 03:24:38;;;;;;;19.47;6.90;;;;;;;;;;4922427;29;20209;-89
2023/01/11 03:27:10;;;;;;;7.90;4.27;;;;;;;;;;4922197;29;20255;-89
2023/01/11 03:29:46;;;;;;;8.70;3.90;;;;;;;;;;4922424;29;20340;-89
2023/01/11 03:32:17;;;;;;;18.70;4.90;;;;;;;;;;4922115;29;20209;-89
2023/01/11 03:34:48;;;;;;;23.70;7.17;;;;;;;;;;4922196;29;20214;-89
2023/01/11 03:37:18;;;;;;;20.63;5.73;;;;;;;;;;4922531;29;20211;-90
2023/01/11 03:39:49;;;;;;;4.97;2.20;;;;;;;;;;4938778;29;20274;-90
2023/01/11 03:42:19;;;;;;;26.27;4.13;;;;;;;;;;4921875;29;20237;-90
2023/01/11 03:44:53;;;;;;;29.23;7.57;;;;;;;;;;4938817;29;20207;-89
2023/01/11 03:47:23;;;;;;;7.00;4.23;;;;;;;;;;4922259;29;20229;-89
2023/01/11 03:49:52;;;;;;;16.33;4.70;;;;;;;;;;4938586;29;20246;-90
2023/01/11 03:52:24;;;;;;;9.83;4.70;;;;;;;;;;4938570;29;20209;-90
2023/01/11 03:54:54;;;;;;;13.07;5.40;;;;;;;;;;4921608;29;20209;-90
2023/01/11 03:57:23;;;;;;;15.33;5.13;;;;;;;;;;4920722;29;20237;-90
2023/01/11 03:59:54;;;;;;;26.37;6.70;;;;;;;;;;4921626;29;20206;-90
2023/01/11 04:02:23;;;;;;;18.33;5.50;;;;;;;;;;4938705;29;20322;-90
2023/01/11 04:04:51;;;;;;;12.57;5.37;;;;;;;;;;4921368;29;20267;-89
2023/01/11 04:07:20;;;;;;;17.67;5.27;;;;;;;;;;4918404;29;20238;-90
2023/01/11 04:09:48;;;;;;;19.30;5.47;;;;;;;;;;4918383;29;20222;-89
2023/01/11 04:12:17;;;;;;;19.73;5.27;;;;;;;;;;4918636;29;20214;-90
2023/01/11 04:14:45;;;;;;;26.30;4.83;;;;;;;;;;4918323;29;20215;-89
2023/01/11 04:17:15;;;;;;;21.30;5.77;;;;;;;;;;4919561;29;20238;-89
2023/01/11 04:19:43;;;;;;;15.37;5.90;;;;;;;;;;4918240;29;20233;-90
2023/01/11 04:22:11;;;;;;;13.47;4.23;;;;;;;;;;4918150;29;20202;-90
2023/01/11 04:24:40;;;;;;;21.67;4.57;;;;;;;;;;4918117;29;20269;-90
2023/01/11 04:27:08;;;;;;;11.77;5.00;;;;;;;;;;4918103;29;20214;-90
2023/01/11 04:29:36;;;;;;;13.80;5.23;;;;;;;;;;4917767;29;20253;-90
2023/01/11 04:32:05;;;;;;;22.10;6.50;;;;;;;;;;4917902;29;20204;-89
2023/01/11 04:34:35;;;;;;;8.13;3.33;;;;;;;;;;4918163;29;20223;-89
2023/01/11 04:37:03;;;;;;;27.77;6.67;;;;;;;;;;4919197;29;20242;-89
2023/01/11 04:39:32;;;;;;;18.03;5.37;;;;;;;;;;4917965;29;20199;-89
2023/01/11 04:42:18;;;;;;;10.27;4.30;;;;;;;;;;4918614;29;20301;-89
2023/01/11 04:44:47;;;;;;;19.00;5.97;;;;;;;;;;4917749;29;20203;-89
2023/01/11 04:47:16;;;;;;;15.40;4.43;;;;;;;;;;4917895;29;20210;-89
2023/01/11 04:49:46;;;;;;;8.77;3.30;;;;;;;;;;4918805;29;20219;-89
2023/01/11 04:52:15;;;;;;;21.57;4.90;;;;;;;;;;4917564;29;20230;-89
2023/01/11 04:54:43;;;;;;;10.83;3.80;;;;;;;;;;4918350;29;20204;-89
2023/01/11 04:57:13;;;;;;;5.53;2.77;;;;;;;;;;4917420;29;20226;-90
2023/01/11 04:59:41;;;;;;;13.73;3.57;;;;;;;;;;4917487;29;20220;-89
2023/01/11 05:02:10;;;;;;;14.77;3.67;;;;;;;;;;4917481;29;20233;-90
2023/01/11 05:04:38;;;;;;;16.37;3.50;;;;;;;;;;4918558;29;20214;-89
2023/01/11 05:07:08;;;;;;;13.70;4.37;;;;;;;;;;4913236;29;20274;-89
2023/01/11 05:09:37;;;;;;;4.57;2.27;;;;;;;;;;4898799;29;20200;-89
2023/01/11 05:12:05;;;;;;;13.87;2.43;;;;;;;;;;4898549;29;20215;-89
2023/01/11 05:14:34;;;;;;;6.77;1.90;;;;;;;;;;4898326;29;20200;-89
2023/01/11 05:17:02;;;;;;;3.90;2.00;;;;;;;;;;4899250;29;20211;-89
2023/01/11 05:19:31;;;;;;;4.13;2.10;;;;;;;;;;4898407;29;20222;-89
2023/01/11 05:21:59;;;;;;;7.30;2.20;;;;;;;;;;4898168;29;20239;-89
2023/01/11 05:24:29;;;;;;;12.47;5.10;;;;;;;;;;4897968;29;20243;-90
2023/01/11 05:26:57;;;;;;;10.33;2.87;;;;;;;;;;4898241;29;20252;-90
2023/01/11 05:29:26;;;;;;;13.10;2.67;;;;;;;;;;4898018;29;20307;-89
2023/01/11 05:31:54;;;;;;;7.43;2.23;;;;;;;;;;4897887;29;20223;-89
2023/01/11 05:34:22;;;;;;;9.67;2.97;;;;;;;;;;4899168;29;20254;-89
2023/01/11 05:36:51;;;;;;;12.43;4.37;;;;;;;;;;4898325;29;20255;-89
2023/01/11 05:39:21;;;;;;;4.90;1.50;;;;;;;;;;4898237;29;20310;-90
2023/01/11 05:41:51;;;;;;;5.60;3.47;;;;;;;;;;4897713;29;20195;-89
2023/01/11 05:47:05;;;;;;;4.97;1.63;;;;;;;;;;4898125;29;20217;-89
2023/01/11 05:49:34;;;;;;;11.47;3.70;;;;;;;;;;4897876;29;20219;-89
2023/01/11 05:52:02;;;;;;;3.43;1.97;;;;;;;;;;4897471;29;20231;-89
2023/01/11 05:54:30;;;;;;;6.40;2.67;;;;;;;;;;4897514;29;20299;-89
2023/01/11 05:57:00;;;;;;;10.97;3.67;;;;;;;;;;4913873;29;20261;-90
2023/01/11 05:59:29;;;;;;;10.87;3.70;;;;;;;;;;4898632;29;20198;-90
2023/01/11 06:01:59;;;;;;;8.90;3.33;;;;;;;;;;4897990;29;20209;-89
2023/01/11 06:04:27;;;;;;;13.40;3.80;;;;;;;;;;4897504;29;20292;-89
2023/01/11 06:06:56;;;;;;;11.50;3.83;;;;;;;;;;4903070;29;20252;-89
2023/01/11 06:09:24;;;;;;;9.90;3.87;;;;;;;;;;4919657;29;20309;-89
2023/01/11 06:11:53;;;;;;;8.77;3.27;;;;;;;;;;4919808;29;20221;-89
2023/01/11 06:14:22;;;;;;;12.30;4.07;;;;;;;;;;4919912;29;20237;-89
2023/01/11 06:16:51;;;;;;;4.07;1.57;;;;;;;;;;4919508;29;20209;-89
2023/01/11 06:19:19;;;;;;;8.57;1.87;;;;;;;;;;4936745;29;20205;-89
2023/01/11 06:21:47;;;;;;;7.87;2.43;;;;;;;;;;4922708;29;20257;-89
2023/01/11 06:24:16;;;;;;;4.67;2.47;;;;;;;;;;4923304;29;20233;-89
2023/01/11 06:26:44;;;;;;;10.73;2.27;;;;;;;;;;4923273;29;20214;-89
2023/01/11 06:29:13;;;;;;;7.30;3.23;;;;;;;;;;4923555;29;20211;-89
2023/01/11 06:31:43;;;;;;;10.23;2.80;;;;;;;;;;4923353;29;20227;-89
2023/01/11 06:34:11;;;;;;;10.60;4.57;;;;;;;;;;4923172;29;20204;-89
2023/01/11 06:36:40;;;;;;;5.80;2.83;;;;;;;;;;4939885;29;20197;-89
2023/01/11 06:39:09;;;;;;;9.10;3.00;;;;;;;;;;4922993;29;20208;-89
2023/01/11 06:41:38;;;;;;;6.73;1.70;;;;;;;;;;4923161;29;20209;-90
2023/01/11 06:44:06;;;;;;;7.00;3.23;;;;;;;;;;4923820;29;20206;-90
2023/01/11 06:46:35;;;;;;;15.73;3.90;;;;;;;;;;4923112;29;20208;-89
2023/01/11 06:49:05;;;;;;;13.77;3.70;;;;;;;;;;4939872;29;20227;-89
2023/01/11 06:51:33;;;;;;;13.67;4.57;;;;;;;;;;4922505;29;20280;-89
2023/01/11 06:54:02;;;;;;;4.20;2.47;;;;;;;;;;4940065;29;20259;-89
2023/01/11 06:56:30;;;;;;;7.93;2.73;;;;;;;;;;4922980;29;20263;-90
2023/01/11 06:58:58;;;;;;;10.87;3.63;;;;;;;;;;4939616;29;20203;-89
2023/01/11 07:01:29;;;;;;;10.63;4.17;;;;;;;;;;4939685;29;20215;-88
2023/01/11 07:04:00;;;;;;;10.20;4.90;;;;;;;;;;4922604;29;20208;-88
2023/01/11 07:06:30;;;;;;;9.80;3.20;;;;;;;;;;4922899;29;20232;-89
2023/01/11 07:08:59;;;;;;;9.03;2.33;;;;;;;;;;4939404;29;20268;-88
2023/01/11 07:11:27;;;;;;;12.43;3.07;;;;;;;;;;4922325;29;20268;-88
2023/01/11 07:13:55;;;;;;;7.17;3.03;;;;;;;;;;4922621;29;20218;-88
2023/01/11 07:16:24;;;;;;;8.20;2.23;;;;;;;;;;4922631;29;20231;-88
2023/01/11 07:18:52;;;;;;;9.57;2.77;;;;;;;;;;4939222;29;20203;-88
2023/01/11 07:21:20;;;;;;;12.33;3.10;;;;;;;;;;4922600;29;20209;-88
2023/01/11 07:23:52;;;;;;;11.20;3.87;;;;;;;;;;4922260;29;20283;-89
2023/01/11 07:26:20;;;;;;;14.67;8.47;;;;;;;;;;4939299;29;20205;-89
2023/01/11 07:28:49;;;;;;;10.17;2.30;;;;;;;;;;4939423;29;20217;-89
2023/01/11 07:31:17;;;;;;;5.07;2.03;;;;;;;;;;4938847;29;20231;-89
2023/01/11 07:33:46;;;;;;;4.10;1.43;;;;;;;;;;4922362;29;20354;-88
2023/01/11 07:36:14;;;;;;;14.40;3.43;;;;;;;;;;4922220;29;20228;-88
2023/01/11 07:38:43;;;;;;;20.53;4.77;;;;;;;;;;4922264;29;20206;-88
2023/01/11 07:44:00;;;;;;;14.53;2.97;;;;;;;;;;4912346;29;20217;-87
2023/01/11 07:46:28;;;;;;;11.27;4.37;;;;;;;;;;4916212;29;20211;-87
2023/01/11 07:48:58;;;;;;;7.30;2.40;;;;;;;;;;4927753;29;20227;-87
2023/01/11 07:51:26;;;;;;;6.30;2.40;;;;;;;;;;4917784;29;20231;-87
2023/01/11 07:53:55;;;;;;;9.53;1.93;;;;;;;;;;4902470;29;20226;-87
2023/01/11 07:56:25;;;;;;;7.73;3.17;;;;;;;;;;4910408;29;20224;-87
2023/01/11 07:58:53;;;;;;;5.43;3.10;;;;;;;;;;4914289;29;20233;-86
2023/01/11 08:01:22;;;;;;;7.00;3.77;;;;;;;;;;4912939;29;20223;-86
2023/01/11 08:03:50;;;;;;;7.80;2.90;;;;;;;;;;4915632;29;20275;-87
2023/01/11 08:06:19;;;;;;;7.47;2.30;;;;;;;;;;4924370;29;20254;-83
2023/01/11 08:08:47;;;;;;;2.23;1.30;;;;;;;;;;4907740;29;20240;-88
2023/01/11 08:16:58;;;;;;;12.00;3.17;;;;;;;;;;4875794;29;20260;-88
2023/01/11 08:19:26;;;;;;;11.93;2.90;;;;;;;;;;4913061;29;20309;-89
2023/01/11 08:21:55;;;;;;;5.40;2.77;;;;;;;;;;4906893;29;20272;-88
2023/01/11 08:24:24;;;;;;;7.57;2.33;;;;;;;;;;4924370;29;20670;-87
2023/01/11 08:26:54;;;;;;;6.70;2.37;;;;;;;;;;4909104;29;20247;-87
2023/01/11 08:29:25;;;;;;;5.40;2.30;;;;;;;;;;4907468;29;20223;-88
2023/01/11 08:31:53;;;;;;;10.27;2.57;;;;;;;;;;4907965;29;20219;-88
2023/01/11 08:34:22;;;;;;;7.17;3.40;;;;;;;;;;4906989;29;20230;-89
2023/01/11 08:36:50;;;;;;;9.03;3.60;;;;;;;;;;4926010;29;20225;-88
2023/01/11 08:39:19;;;;;;;6.77;3.47;;;;;;;;;;4911094;29;20232;-88
2023/01/11 08:41:47;;;;;;;12.23;2.97;;;;;;;;;;4911225;29;20228;-88
2023/01/11 08:44:16;;;;;;;4.57;2.20;;;;;;;;;;4910194;29;20217;-88
2023/01/11 08:46:57;;;;;;;11.47;2.93;;;;;;;;;;4904284;29;20240;-89
2023/01/11 08:49:26;;;;;;;12.40;2.83;;;;;;;;;;4927469;29;20221;-88
2023/01/11 08:51:54;;;;;;;11.30;3.23;;;;;;;;;;4909327;29;20232;-87
2023/01/11 08:54:23;;;;;;;9.43;2.17;;;;;;;;;;4903401;29;20227;-88
2023/01/11 08:56:52;;;;;;;11.43;2.10;;;;;;;;;;4909447;29;20312;-87
2023/01/11 08:59:24;;;;;;;3.97;1.50;;;;;;;;;;4910596;29;20232;-88
2023/01/11 09:01:52;;;;;;;9.33;3.13;;;;;;;;;;4909279;29;20236;-89
2023/01/11 09:04:25;;;;;;;9.60;2.93;;;;;;;;;;4909321;29;20209;-89
2023/01/11 09:06:55;;;;;;;8.97;3.90;;;;;;;;;;4914472;29;20248;-85
2023/01/11 09:09:23;;;;;;;5.13;1.50;;;;;;;;;;4935957;29;20241;-87
2023/01/11 09:11:57;;;;;;;6.17;3.03;;;;;;;;;;4919817;29;20207;-87
2023/01/11 09:14:26;;;;;;;6.00;2.57;;;;;;;;;;4911878;29;20213;-87
2023/01/11 09:16:55;;;;;;;13.93;4.97;;;;;;;;;;4934034;29;20215;-88
2023/01/11 09:19:25;;;;;;;10.53;1.97;;;;;;;;;;4936003;29;20208;-88
2023/01/11 09:21:56;;;;;;;11.10;4.47;;;;;;;;;;4916960;29;20212;-87
2023/01/11 09:24:25;;;;;;;19.37;7.30;;;;;;;;;;4916046;29;20216;-88
2023/01/11 09:26:53;;;;;;;7.33;2.20;;;;;;;;;;4916695;29;20268;-87
2023/01/11 09:29:22;;;;;;;7.73;2.40;;;;;;;;;;4914574;29;20305;-88
2023/01/11 09:31:50;;;;;;;7.03;2.40;;;;;;;;;;4917576;29;20211;-87
2023/01/11 09:34:19;;;;;;;10.77;3.30;;;;;;;;;;4917831;29;20219;-88
2023/01/11 09:36:49;;;;;;;4.73;2.90;;;;;;;;;;4936196;29;20299;-87
2023/01/11 09:39:21;;;;;;;7.27;2.70;;;;;;;;;;4936577;29;20299;-87
2023/01/11 09:42:00;;;;;;;3.23;1.93;;;;;;;;;;4907762;29;20212;-87
2023/01/11 09:44:29;;;;;;;9.27;3.83;;;;;;;;;;4933740;29;20226;-86
2023/01/11 09:47:03;;;;;;;5.13;2.27;;;;;;;;;;4919034;29;20321;-86
2023/01/11 09:49:34;;;;;;;8.47;2.40;;;;;;;;;;4920052;29;20267;-86
2023/01/11 09:52:10;;;;;;;11.37;4.87;;;;;;;;;;4935934;29;20208;-85
2023/01/11 09:54:38;;;;;;;12.10;4.33;;;;;;;;;;4933710;29;20243;-86
2023/01/11 09:57:10;;;;;;;5.33;2.50;;;;;;;;;;4924435;29;20211;-85
2023/01/11 09:59:43;;;;;;;24.93;3.10;;;;;;;;;;4914365;29;20240;-86
2023/01/11 10:02:18;;;;;;;2.63;2.03;;;;;;;;;;4917041;29;20261;-86
2023/01/11 10:05:00;;;;;;;7.47;2.73;;;;;;;;;;4932651;29;20204;-86
2023/01/11 10:07:37;;;;;;;8.50;3.30;;;;;;;;;;4912719;29;20248;-86
2023/01/11 10:10:19;;;;;;;7.93;2.47;;;;;;;;;;4926663;29;20201;-87
2023/01/11 10:13:16;;;;;;;7.57;2.40;;;;;;;;;;4908474;29;20216;-86
2023/01/11 10:16:17;;;;;;;8.17;2.70;;;;;;;;;;4909083;29;20213;-86
2023/01/11 10:19:13;;;;;;;8.20;2.70;;;;;;;;;;4926737;29;20215;-85
2023/01/11 10:22:06;;;;;;;11.83;2.67;;;;;;;;;;4911980;29;20216;-84
2023/01/11 10:24:39;;;;;;;9.93;3.23;;;;;;;;;;4919950;29;20224;-85
2023/01/11 10:27:14;;;;;;;2.33;1.87;;;;;;;;;;4911827;29;20211;-85
2023/01/11 10:30:04;;;;;;;13.20;3.37;;;;;;;;;;4930875;29;20223;-85
2023/01/11 10:32:52;;;;;;;4.43;1.50;;;;;;;;;;4915987;29;20212;-84
2023/01/11 10:35:44;;;;;;;8.70;2.27;;;;;;;;;;4910637;29;20202;-86
2023/01/11 10:38:41;;;;;;;4.47;3.43;;;;;;;;;;4925932;29;20205;-86
2023/01/11 10:41:20;;;;;;;11.10;3.60;;;;;;;;;;4910909;29;20222;-84
2023/01/11 10:43:53;;;;;;;2.77;1.63;;;;;;;;;;4920488;29;20213;-85
2023/01/11 10:46:23;;;;;;;12.43;2.17;;;;;;;;;;4912920;29;20225;-85
2023/01/11 10:48:59;;;;;;;7.60;1.90;;;;;;;;;;4925483;29;20212;-85
2023/01/11 10:51:31;;;;;;;7.17;3.83;;;;;;;;;;4926741;29;20337;-85
2023/01/11 10:54:02;;;;;;;15.93;4.20;;;;;;;;;;4909117;29;20228;-85
2023/01/11 10:56:50;;;;;;;21.17;5.27;;;;;;;;;;4910567;29;20240;-84
2023/01/11 10:59:40;;;;;;;3.93;1.67;;;;;;;;;;4928235;29;20297;-84
2023/01/11 11:02:16;;;;;;;5.37;2.47;;;;;;;;;;4929811;29;20264;-84
2023/01/11 11:04:55;;;;;;;3.37;2.13;;;;;;;;;;4925372;29;20233;-84
2023/01/11 11:07:26;;;;;;;7.00;2.23;;;;;;;;;;4913184;29;20216;-86
2023/01/11 11:09:57;;;;;;;6.73;3.57;;;;;;;;;;4931944;29;20209;-84
2023/01/11 11:12:29;;;;;;;8.17;2.57;;;;;;;;;;4937842;29;20224;-84
2023/01/11 11:15:03;;;;;;;8.60;3.03;;;;;;;;;;4915117;29;20230;-85
2023/01/11 11:17:32;;;;;;;11.73;4.53;;;;;;;;;;4915503;29;20213;-85
2023/01/11 11:20:01;;;;;;;16.83;6.50;;;;;;;;;;4917275;29;20217;-86
2023/01/11 11:22:29;;;;;;;14.80;2.70;;;;;;;;;;4935478;29;20210;-86
2023/01/11 11:25:00;;;;;;;12.53;3.23;;;;;;;;;;4935142;29;20276;-85
2023/01/11 11:27:33;;;;;;;13.83;4.23;;;;;;;;;;4916563;29;20213;-85
2023/01/11 11:30:02;;;;;;;9.47;2.57;;;;;;;;;;4910342;29;20234;-86
2023/01/11 11:32:31;;;;;;;5.87;2.00;;;;;;;;;;4917822;29;20240;-87
2023/01/11 11:35:03;;;;;;;7.27;3.03;;;;;;;;;;4914264;29;20216;-86
2023/01/11 11:37:33;;;;;;;17.47;5.03;;;;;;;;;;4917894;29;20203;-87
2023/01/11 11:40:02;;;;;;;8.90;2.63;;;;;;;;;;4939234;29;20241;-87
2023/01/11 11:42:37;;;;;;;11.53;4.13;;;;;;;;;;4922097;29;20213;-87
2023/01/11 11:45:15;;;;;;;4.97;2.73;;;;;;;;;;4921964;29;20229;-87
2023/01/11 11:47:44;;;;;;;1.47;1.37;;;;;;;;;;4939183;29;20209;-88
2023/01/11 11:50:26;;;;;;;5.60;3.37;;;;;;;;;;4938974;29;20200;-87
2023/01/11 11:53:24;;;;;;;12.60;5.03;;;;;;;;;;4922256;29;20287;-87
2023/01/11 11:55:53;;;;;;;5.73;4.13;;;;;;;;;;4921604;29;20213;-87
2023/01/11 11:58:24;;;;;;;15.00;5.97;;;;;;;;;;4921844;29;20205;-87
2023/01/11 12:00:53;;;;;;;10.20;4.87;;;;;;;;;;4922143;29;20214;-86
2023/01/11 12:03:24;;;;;;;15.70;6.30;;;;;;;;;;4921878;29;20216;-87
2023/01/11 12:05:56;;;;;;;15.53;4.87;;;;;;;;;;4921976;29;20244;-87
2023/01/11 12:08:25;;;;;;;6.60;3.30;;;;;;;;;;4938517;29;20279;-87
2023/01/11 12:10:56;;;;;;;6.03;2.73;;;;;;;;;;4922068;29;20226;-87
2023/01/11 12:13:33;;;;;;;20.63;4.97;;;;;;;;;;4938512;29;20204;-87
2023/01/11 12:16:02;;;;;;;16.87;4.70;;;;;;;;;;4938602;29;20204;-87
2023/01/11 12:18:32;;;;;;;12.50;2.83;;;;;;;;;;4920739;29;20220;-87
2023/01/11 12:21:16;;;;;;;10.77;2.93;;;;;;;;;;4921252;29;20217;-87
2023/01/11 12:23:44;;;;;;;7.90;3.13;;;;;;;;;;4938553;29;20216;-87
2023/01/11 12:26:19;;;;;;;8.67;2.80;;;;;;;;;;4921263;29;20308;-87
2023/01/11 12:29:13;;;;;;;11.20;3.97;;;;;;;;;;4921322;29;20207;-87
2023/01/11 12:31:57;;;;;;;10.43;3.10;;;;;;;;;;4921720;29;20201;-87
2023/01/11 12:34:43;;;;;;;5.70;2.87;;;;;;;;;;4921593;29;20220;-86
2023/01/11 12:37:19;;;;;;;7.17;2.70;;;;;;;;;;4921212;29;20216;-87
2023/01/11 12:39:51;;;;;;;7.50;2.77;;;;;;;;;;4921400;29;20200;-86
2023/01/11 12:42:38;;;;;;;14.67;4.20;;;;;;;;;;4938090;29;20205;-87
2023/01/11 12:45:15;;;;;;;13.00;3.87;;;;;;;;;;4921123;29;20307;-87
2023/01/11 12:47:55;;;;;;;14.20;3.87;;;;;;;;;;4921358;29;20201;-87
2023/01/11 12:50:28;;;;;;;6.37;2.73;;;;;;;;;;4921374;29;20263;-87
2023/01/11 12:53:17;;;;;;;17.73;4.93;;;;;;;;;;4921174;29;20300;-87
2023/01/11 12:55:56;;;;;;;16.47;3.87;;;;;;;;;;4915655;29;20222;-88
2023/01/11 12:58:25;;;;;;;10.33;2.87;;;;;;;;;;4921049;29;20217;-87
2023/01/11 13:01:11;;;;;;;10.50;3.30;;;;;;;;;;4920842;29;20303;-87
2023/01/11 13:03:52;;;;;;;13.80;3.70;;;;;;;;;;4938125;29;20206;-87
2023/01/11 13:06:24;;;;;;;15.43;4.47;;;;;;;;;;4920987;29;20232;-87
2023/01/11 13:08:58;;;;;;;11.17;3.77;;;;;;;;;;4914415;29;20242;-87
2023/01/11 13:11:35;;;;;;;15.93;3.07;;;;;;;;;;4899975;29;20241;-87
2023/01/11 13:14:22;;;;;;;21.63;5.23;;;;;;;;;;4914799;29;20269;-87
2023/01/11 13:16:54;;;;;;;7.43;2.07;;;;;;;;;;4889684;29;20221;-87
2023/01/11 13:19:27;;;;;;;7.70;2.33;;;;;;;;;;4914691;29;20217;-87
2023/01/11 13:21:56;;;;;;;6.70;2.93;;;;;;;;;;4899385;29;20238;-87
2023/01/11 13:24:26;;;;;;;3.13;2.63;;;;;;;;;;4898708;29;20273;-87
2023/01/11 13:26:57;;;;;;;8.17;3.47;;;;;;;;;;4899536;29;20265;-87
2023/01/11 13:29:28;;;;;;;7.73;2.90;;;;;;;;;;4899269;29;20202;-87
2023/01/11 13:31:58;;;;;;;12.40;4.27;;;;;;;;;;4898308;29;20210;-87
2023/01/11 13:34:28;;;;;;;19.87;3.57;;;;;;;;;;4898391;29;20221;-87
2023/01/11 13:37:00;;;;;;;13.73;2.90;;;;;;;;;;4914361;29;20198;-87
2023/01/11 13:39:33;;;;;;;4.40;1.53;;;;;;;;;;4898462;29;20237;-88
2023/01/11 13:42:03;;;;;;;26.50;6.33;;;;;;;;;;4899258;29;20202;-88
2023/01/11 13:44:33;;;;;;;4.27;2.93;;;;;;;;;;4913972;29;20239;-88
2023/01/11 13:47:08;;;;;;;13.60;3.87;;;;;;;;;;4913797;29;20206;-88
2023/01/11 13:49:46;;;;;;;8.50;3.37;;;;;;;;;;4898133;29;20220;-88
2023/01/11 13:52:16;;;;;;;13.10;3.07;;;;;;;;;;4898529;29;20227;-88
2023/01/11 13:54:49;;;;;;;16.50;3.10;;;;;;;;;;4898043;29;20227;-88
2023/01/11 13:57:22;;;;;;;14.53;3.00;;;;;;;;;;4898693;29;20281;-88
2023/01/11 13:59:52;;;;;;;16.47;3.30;;;;;;;;;;4897788;29;20206;-88
2023/01/11 14:02:25;;;;;;;13.27;3.93;;;;;;;;;;4913575;29;20240;-88
2023/01/11 14:04:56;;;;;;;18.07;3.83;;;;;;;;;;4897979;29;20254;-88
2023/01/11 14:07:33;;;;;;;9.53;3.67;;;;;;;;;;4902671;29;20236;-88
2023/01/11 14:10:14;;;;;;;14.90;4.83;;;;;;;;;;4920103;29;20207;-88
2023/01/11 14:12:50;;;;;;;11.43;3.13;;;;;;;;;;4920043;29;20208;-88
2023/01/11 14:15:22;;;;;;;15.73;4.23;;;;;;;;;;4919179;29;20228;-88
2023/01/11 14:18:11;;;;;;;5.47;2.47;;;;;;;;;;4919955;29;20209;-88
2023/01/11 14:20:46;;;;;;;2.97;1.53;;;;;;;;;;4913830;29;20227;-88
2023/01/11 14:23:16;;;;;;;26.00;6.30;;;;;;;;;;4936521;29;20227;-88
2023/01/11 14:25:51;;;;;;;4.60;1.97;;;;;;;;;;4936666;29;20200;-88
2023/01/11 14:28:22;;;;;;;10.50;2.40;;;;;;;;;;4919647;29;20205;-88
2023/01/11 14:30:56;;;;;;;10.30;3.10;;;;;;;;;;4919524;29;20209;-88
2023/01/11 14:33:31;;;;;;;4.67;1.80;;;;;;;;;;4919555;29;20207;-88
2023/01/11 14:36:07;;;;;;;6.07;2.80;;;;;;;;;;4919691;29;20226;-88
2023/01/11 14:38:54;;;;;;;11.70;2.80;;;;;;;;;;4919725;29;20207;-86
2023/01/11 14:41:53;;;;;;;10.87;4.40;;;;;;;;;;4920131;29;20211;-88
2023/01/11 14:44:37;;;;;;;1.17;0.90;;;;;;;;;;4863233;29;20233;-87
2023/01/11 14:47:15;;;;;;;6.90;2.90;;;;;;;;;;4914460;29;20221;-88
2023/01/11 14:49:50;;;;;;;7.20;4.03;;;;;;;;;;4923018;29;20232;-88
2023/01/11 14:52:22;;;;;;;11.97;3.00;;;;;;;;;;4939795;29;20315;-88
2023/01/11 14:55:08;;;;;;;4.60;1.83;;;;;;;;;;4923423;29;20217;-88
2023/01/11 14:57:38;;;;;;;21.10;5.93;;;;;;;;;;4922839;29;20216;-88
2023/01/11 15:00:33;;;;;;;6.67;2.00;;;;;;;;;;4922805;29;20291;-87
2023/01/11 15:03:19;;;;;;;6.33;2.50;;;;;;;;;;4922707;29;20203;-88
2023/01/11 15:05:49;;;;;;;5.90;2.57;;;;;;;;;;4939260;29;20248;-88
2023/01/11 15:08:24;;;;;;;9.63;4.47;;;;;;;;;;4922260;29;20311;-88
2023/01/11 15:10:56;;;;;;;17.77;4.63;;;;;;;;;;4922781;29;20200;-88
2023/01/11 15:13:25;;;;;;;9.87;3.60;;;;;;;;;;4922476;29;20207;-88
2023/01/11 15:18:53;;;;;;;5.57;2.87;;;;;;;;;;4939702;29;20210;-88
2023/01/11 15:21:23;;;;;;;11.07;2.70;;;;;;;;;;4922407;29;20240;-88
2023/01/11 15:23:54;;;;;;;9.87;4.17;;;;;;;;;;4939308;29;20258;-88
2023/01/11 15:26:23;;;;;;;11.77;4.13;;;;;;;;;;4922399;29;20226;-88
2023/01/11 15:28:53;;;;;;;15.20;4.53;;;;;;;;;;4922599;29;20262;-88
2023/01/11 15:31:33;;;;;;;16.83;4.30;;;;;;;;;;4922240;29;20259;-88